ANZ390 NZQN-NZAA
Flight info
| Callsign | ANZ390 |
|---|---|
| Flight time | 1h 31m |
| Altitude | 37000 |
| Route | QN Y569 LOVTA Y655 POKOM Q277 DAVEE |
| Aircraft | A21N/M-SDE2E3FGHIRWXY/LB1 |
Departure
| Time | 2026-05-07 09:20 |
|---|---|
| Airport | Queenstown Airport (NZQN) |
Arrival
| Time | 2026-05-07 10:52 |
|---|---|
| Airport | Auckland International Airport (NZAA) |
| Time | Latitude | Longitude | Altitude | Speed | Heading |
|---|---|---|---|---|---|
| 2026-05-07 09:02 | -45.02199 | 168.74118 | 1177 ft | 0 kts | 250° |
| 2026-05-07 09:14 | -45.02195 | 168.74132 | 1176 ft | 1 kts | 250° |
| 2026-05-07 09:14 | -45.02192 | 168.74145 | 1174 ft | 1 kts | 250° |
| 2026-05-07 09:14 | -45.02188 | 168.74159 | 1173 ft | 1 kts | 250° |
| 2026-05-07 09:14 | -45.02186 | 168.74172 | 1173 ft | 1 kts | 272° |
| 2026-05-07 09:15 | -45.02188 | 168.74186 | 1173 ft | 1 kts | 303° |
| 2026-05-07 09:15 | -45.02195 | 168.74196 | 1175 ft | 1 kts | 333° |
| 2026-05-07 09:15 | -45.02203 | 168.74200 | 1173 ft | 0 kts | 342° |
| 2026-05-07 09:16 | -45.02197 | 168.74197 | 1175 ft | 3 kts | 342° |
| 2026-05-07 09:17 | -45.02172 | 168.74186 | 1176 ft | 5 kts | 341° |
| 2026-05-07 09:17 | -45.02128 | 168.74160 | 1175 ft | 8 kts | 325° |
| 2026-05-07 09:17 | -45.02095 | 168.74085 | 1174 ft | 10 kts | 295° |
| 2026-05-07 09:17 | -45.02060 | 168.73998 | 1173 ft | 6 kts | 325° |
| 2026-05-07 09:18 | -45.02025 | 168.74006 | 1173 ft | 7 kts | 22° |
| 2026-05-07 09:18 | -45.01964 | 168.74040 | 1172 ft | 11 kts | 13° |
| 2026-05-07 09:18 | -45.01938 | 168.73959 | 1176 ft | 14 kts | 257° |
| 2026-05-07 09:18 | -45.01964 | 168.73799 | 1175 ft | 19 kts | 257° |
| 2026-05-07 09:19 | -45.02001 | 168.73636 | 1172 ft | 13 kts | 255° |
| 2026-05-07 09:19 | -45.01998 | 168.73515 | 1175 ft | 9 kts | 221° |
| 2026-05-07 09:19 | -45.02016 | 168.73542 | 1174 ft | 4 kts | 71° |
| 2026-05-07 09:19 | -45.02000 | 168.73584 | 1173 ft | 6 kts | 66° |
| 2026-05-07 09:20 | -45.01995 | 168.73606 | 1172 ft | 0 kts | 77° |
| 2026-05-07 09:20 | -45.01952 | 168.73875 | 1175 ft | 74 kts | 77° |
| 2026-05-07 09:20 | -45.01772 | 168.75060 | 1203 ft | 165 kts | 77° |
| 2026-05-07 09:20 | -45.01450 | 168.76673 | 2109 ft | 173 kts | 59° |
| 2026-05-07 09:21 | -45.00565 | 168.77779 | 3201 ft | 176 kts | 24° |
| 2026-05-07 09:21 | -44.99371 | 168.78487 | 4135 ft | 194 kts | 23° |
| 2026-05-07 09:21 | -44.98124 | 168.79323 | 5113 ft | 207 kts | 24° |
| 2026-05-07 09:21 | -44.96811 | 168.80291 | 6118 ft | 222 kts | 26° |
| 2026-05-07 09:22 | -44.95378 | 168.81390 | 7019 ft | 245 kts | 26° |
| 2026-05-07 09:22 | -44.93864 | 168.82697 | 8070 ft | 264 kts | 27° |
| 2026-05-07 09:22 | -44.92263 | 168.84091 | 9258 ft | 277 kts | 25° |
| 2026-05-07 09:22 | -44.90567 | 168.85505 | 10360 ft | 287 kts | 22° |
| 2026-05-07 09:23 | -44.88758 | 168.86896 | 10928 ft | 307 kts | 21° |
| 2026-05-07 09:23 | -44.86795 | 168.88319 | 11488 ft | 323 kts | 20° |
| 2026-05-07 09:23 | -44.84793 | 168.89797 | 12322 ft | 332 kts | 21° |
| 2026-05-07 09:23 | -44.82717 | 168.91379 | 13289 ft | 337 kts | 21° |
| 2026-05-07 09:24 | -44.80646 | 168.92978 | 14144 ft | 343 kts | 21° |
| 2026-05-07 09:24 | -44.78534 | 168.94608 | 14886 ft | 349 kts | 21° |
| 2026-05-07 09:24 | -44.76385 | 168.96261 | 15685 ft | 356 kts | 22° |
| 2026-05-07 09:24 | -44.74187 | 168.97946 | 16496 ft | 363 kts | 22° |
| 2026-05-07 09:25 | -44.71977 | 168.99631 | 17289 ft | 368 kts | 22° |
| 2026-05-07 09:25 | -44.69704 | 169.01361 | 18093 ft | 374 kts | 22° |
| 2026-05-07 09:25 | -44.67397 | 169.03114 | 18785 ft | 379 kts | 22° |
| 2026-05-07 09:25 | -44.65064 | 169.04886 | 19525 ft | 382 kts | 22° |
| 2026-05-07 09:26 | -44.62716 | 169.06668 | 20291 ft | 384 kts | 22° |
| 2026-05-07 09:26 | -44.60358 | 169.08455 | 20985 ft | 388 kts | 22° |
| 2026-05-07 09:26 | -44.57970 | 169.10261 | 21639 ft | 392 kts | 22° |
| 2026-05-07 09:26 | -44.55556 | 169.12085 | 22331 ft | 395 kts | 22° |
| 2026-05-07 09:27 | -44.53126 | 169.13918 | 23021 ft | 399 kts | 22° |
| 2026-05-07 09:27 | -44.50664 | 169.15775 | 23659 ft | 403 kts | 22° |
| 2026-05-07 09:27 | -44.45687 | 169.19524 | 24776 ft | 410 kts | 21° |
| 2026-05-07 09:28 | -44.43156 | 169.21427 | 25298 ft | 413 kts | 21° |
| 2026-05-07 09:28 | -44.40611 | 169.23340 | 25839 ft | 417 kts | 21° |
| 2026-05-07 09:28 | -44.38053 | 169.25262 | 26342 ft | 419 kts | 21° |
| 2026-05-07 09:28 | -44.35502 | 169.27176 | 26809 ft | 421 kts | 21° |
| 2026-05-07 09:29 | -44.32911 | 169.29116 | 27249 ft | 424 kts | 21° |
| 2026-05-07 09:29 | -44.30292 | 169.31075 | 27682 ft | 427 kts | 21° |
| 2026-05-07 09:29 | -44.27665 | 169.33038 | 28100 ft | 429 kts | 21° |
| 2026-05-07 09:29 | -44.25015 | 169.35016 | 28547 ft | 432 kts | 21° |
| 2026-05-07 09:30 | -44.22392 | 169.36973 | 28978 ft | 435 kts | 21° |
| 2026-05-07 09:30 | -44.19713 | 169.38969 | 29394 ft | 438 kts | 21° |
| 2026-05-07 09:30 | -44.17015 | 169.40978 | 29839 ft | 440 kts | 21° |
| 2026-05-07 09:30 | -44.14307 | 169.42992 | 30175 ft | 442 kts | 21° |
| 2026-05-07 09:31 | -44.11581 | 169.45017 | 30583 ft | 444 kts | 21° |
| 2026-05-07 09:31 | -44.10660 | 169.45702 | 30761 ft | 443 kts | 21° |
| 2026-05-07 09:31 | -44.08854 | 169.47045 | 31156 ft | 440 kts | 21° |
| 2026-05-07 09:31 | -44.06192 | 169.49024 | 31705 ft | 438 kts | 21° |
| 2026-05-07 09:32 | -44.03511 | 169.51014 | 32220 ft | 437 kts | 21° |
| 2026-05-07 09:32 | -44.00831 | 169.52998 | 32689 ft | 436 kts | 21° |
| 2026-05-07 09:32 | -43.98152 | 169.54979 | 33123 ft | 435 kts | 21° |
| 2026-05-07 09:32 | -43.95480 | 169.56951 | 33610 ft | 433 kts | 21° |
| 2026-05-07 09:33 | -43.92826 | 169.58910 | 34071 ft | 431 kts | 20° |
| 2026-05-07 09:33 | -43.90183 | 169.60859 | 34512 ft | 428 kts | 20° |
| 2026-05-07 09:33 | -43.87558 | 169.62792 | 34894 ft | 427 kts | 20° |
| 2026-05-07 09:33 | -43.84930 | 169.64723 | 35220 ft | 427 kts | 20° |
| 2026-05-07 09:34 | -43.82301 | 169.66653 | 35549 ft | 427 kts | 20° |
| 2026-05-07 09:34 | -43.79672 | 169.68580 | 35866 ft | 428 kts | 20° |
| 2026-05-07 09:34 | -43.77041 | 169.70508 | 36212 ft | 427 kts | 20° |
| 2026-05-07 09:34 | -43.74417 | 169.72430 | 36566 ft | 425 kts | 19° |
| 2026-05-07 09:35 | -43.71804 | 169.74343 | 36846 ft | 425 kts | 19° |
| 2026-05-07 09:35 | -43.66589 | 169.78154 | 36898 ft | 424 kts | 19° |
| 2026-05-07 09:36 | -43.61388 | 169.81940 | 36897 ft | 427 kts | 20° |
| 2026-05-07 09:36 | -43.56117 | 169.85772 | 36913 ft | 428 kts | 19° |
| 2026-05-07 09:37 | -43.50863 | 169.89596 | 36904 ft | 426 kts | 20° |
| 2026-05-07 09:37 | -43.45934 | 169.94314 | 36914 ft | 436 kts | 30° |
| 2026-05-07 09:38 | -43.41242 | 169.99665 | 36912 ft | 439 kts | 32° |
| 2026-05-07 09:38 | -43.36604 | 170.05125 | 36917 ft | 438 kts | 32° |
| 2026-05-07 09:39 | -43.31998 | 170.10531 | 36922 ft | 438 kts | 31° |
| 2026-05-07 09:39 | -43.27350 | 170.15942 | 36922 ft | 437 kts | 31° |
| 2026-05-07 09:40 | -43.22691 | 170.21336 | 36923 ft | 438 kts | 32° |
| 2026-05-07 09:40 | -43.18040 | 170.26710 | 36925 ft | 438 kts | 32° |
| 2026-05-07 09:41 | -43.13380 | 170.32085 | 36928 ft | 438 kts | 32° |
| 2026-05-07 09:41 | -43.08716 | 170.37454 | 36927 ft | 438 kts | 32° |
| 2026-05-07 09:42 | -43.04048 | 170.42816 | 36930 ft | 438 kts | 32° |
| 2026-05-07 09:42 | -42.99390 | 170.48156 | 36929 ft | 437 kts | 32° |
| 2026-05-07 09:43 | -42.94727 | 170.53492 | 36928 ft | 436 kts | 32° |
| 2026-05-07 09:43 | -42.90066 | 170.58813 | 36926 ft | 437 kts | 32° |
| 2026-05-07 09:44 | -42.85404 | 170.64125 | 36933 ft | 437 kts | 32° |
| 2026-05-07 09:44 | -42.80738 | 170.69430 | 36931 ft | 436 kts | 32° |
| 2026-05-07 09:45 | -42.76110 | 170.74683 | 36931 ft | 436 kts | 32° |
| 2026-05-07 09:45 | -42.71432 | 170.79980 | 36935 ft | 436 kts | 32° |
| 2026-05-07 09:46 | -42.66771 | 170.85247 | 36935 ft | 436 kts | 32° |
| 2026-05-07 09:46 | -42.62126 | 170.90486 | 36935 ft | 436 kts | 32° |
| 2026-05-07 09:47 | -42.57444 | 170.95756 | 36936 ft | 437 kts | 32° |
| 2026-05-07 09:47 | -42.52742 | 171.01037 | 36940 ft | 438 kts | 32° |
| 2026-05-07 09:48 | -42.48841 | 171.05412 | 36935 ft | 438 kts | 32° |
| 2026-05-07 09:48 | -42.43379 | 171.11526 | 36939 ft | 438 kts | 32° |
| 2026-05-07 09:49 | -42.39444 | 171.15921 | 36935 ft | 438 kts | 32° |
| 2026-05-07 09:49 | -42.34775 | 171.21126 | 36948 ft | 438 kts | 32° |
| 2026-05-07 09:50 | -42.29274 | 171.27246 | 36940 ft | 438 kts | 32° |
| 2026-05-07 09:50 | -42.25358 | 171.31592 | 36947 ft | 438 kts | 32° |
| 2026-05-07 09:51 | -42.19869 | 171.37673 | 36951 ft | 439 kts | 32° |
| 2026-05-07 09:51 | -42.15912 | 171.42049 | 36949 ft | 439 kts | 32° |
| 2026-05-07 09:52 | -42.11185 | 171.47268 | 36948 ft | 439 kts | 32° |
| 2026-05-07 09:52 | -42.06453 | 171.52480 | 36957 ft | 439 kts | 32° |
| 2026-05-07 09:53 | -42.01747 | 171.57653 | 36963 ft | 440 kts | 32° |
| 2026-05-07 09:53 | -41.97041 | 171.62931 | 36959 ft | 442 kts | 34° |
| 2026-05-07 09:54 | -41.92458 | 171.68488 | 36961 ft | 444 kts | 36° |
| 2026-05-07 09:54 | -41.87917 | 171.74094 | 36974 ft | 444 kts | 35° |
| 2026-05-07 09:55 | -41.83352 | 171.79685 | 36974 ft | 443 kts | 35° |
| 2026-05-07 09:55 | -41.78784 | 171.85233 | 36976 ft | 443 kts | 35° |
| 2026-05-07 09:56 | -41.74231 | 171.90739 | 36975 ft | 443 kts | 35° |
| 2026-05-07 09:56 | -41.69654 | 171.96263 | 36973 ft | 443 kts | 34° |
| 2026-05-07 09:57 | -41.65086 | 172.01770 | 36988 ft | 441 kts | 34° |
| 2026-05-07 09:57 | -41.60520 | 172.07263 | 36981 ft | 440 kts | 35° |
| 2026-05-07 09:58 | -41.55998 | 172.12692 | 36991 ft | 440 kts | 35° |
| 2026-05-07 09:58 | -41.51443 | 172.18147 | 36993 ft | 440 kts | 35° |
| 2026-05-07 09:59 | -41.46881 | 172.23602 | 36993 ft | 439 kts | 34° |
| 2026-05-07 09:59 | -41.42325 | 172.29041 | 37005 ft | 439 kts | 34° |
| 2026-05-07 10:00 | -41.37795 | 172.34434 | 36997 ft | 440 kts | 34° |
| 2026-05-07 10:00 | -41.33228 | 172.39862 | 37009 ft | 439 kts | 34° |
| 2026-05-07 10:01 | -41.28675 | 172.45265 | 36995 ft | 439 kts | 35° |
| 2026-05-07 10:01 | -41.24125 | 172.50653 | 37005 ft | 437 kts | 34° |
| 2026-05-07 10:02 | -41.19576 | 172.56024 | 37010 ft | 437 kts | 34° |
| 2026-05-07 10:02 | -41.15043 | 172.61369 | 37016 ft | 437 kts | 34° |
| 2026-05-07 10:03 | -41.10490 | 172.66730 | 37002 ft | 437 kts | 34° |
| 2026-05-07 10:03 | -41.05935 | 172.72083 | 37000 ft | 437 kts | 34° |
| 2026-05-07 10:04 | -41.01383 | 172.77420 | 37019 ft | 437 kts | 34° |
| 2026-05-07 10:04 | -40.96857 | 172.82715 | 37016 ft | 437 kts | 34° |
| 2026-05-07 10:05 | -40.92296 | 172.88044 | 37028 ft | 437 kts | 34° |
| 2026-05-07 10:05 | -40.87733 | 172.93366 | 37016 ft | 436 kts | 34° |
| 2026-05-07 10:06 | -40.83182 | 172.98663 | 37034 ft | 436 kts | 34° |
| 2026-05-07 10:06 | -40.78620 | 173.03960 | 37033 ft | 436 kts | 34° |
| 2026-05-07 10:07 | -40.74070 | 173.09236 | 37030 ft | 435 kts | 34° |
| 2026-05-07 10:07 | -40.69515 | 173.14507 | 37025 ft | 435 kts | 34° |
| 2026-05-07 10:08 | -40.64990 | 173.19733 | 37036 ft | 434 kts | 34° |
| 2026-05-07 10:08 | -40.60444 | 173.24973 | 37038 ft | 434 kts | 34° |
| 2026-05-07 10:09 | -40.55894 | 173.30208 | 37038 ft | 434 kts | 34° |
| 2026-05-07 10:09 | -40.51347 | 173.35429 | 37044 ft | 434 kts | 34° |
| 2026-05-07 10:10 | -40.46801 | 173.40641 | 37043 ft | 434 kts | 34° |
| 2026-05-07 10:10 | -40.42250 | 173.45847 | 37051 ft | 434 kts | 34° |
| 2026-05-07 10:11 | -40.37692 | 173.51042 | 37059 ft | 434 kts | 34° |
| 2026-05-07 10:11 | -40.33135 | 173.56223 | 37052 ft | 434 kts | 34° |
| 2026-05-07 10:12 | -40.28601 | 173.61368 | 37065 ft | 434 kts | 34° |
| 2026-05-07 10:12 | -40.24036 | 173.66541 | 37067 ft | 433 kts | 34° |
| 2026-05-07 10:13 | -40.19475 | 173.71700 | 37064 ft | 433 kts | 34° |
| 2026-05-07 10:13 | -40.14933 | 173.76827 | 37078 ft | 433 kts | 34° |
| 2026-05-07 10:14 | -40.10390 | 173.81947 | 37074 ft | 433 kts | 33° |
| 2026-05-07 10:14 | -40.05821 | 173.87085 | 37081 ft | 434 kts | 34° |
| 2026-05-07 10:15 | -40.01241 | 173.92227 | 37072 ft | 434 kts | 34° |
| 2026-05-07 10:15 | -39.96652 | 173.97369 | 37085 ft | 436 kts | 34° |
| 2026-05-07 10:16 | -39.92040 | 174.02529 | 37090 ft | 436 kts | 34° |
| 2026-05-07 10:16 | -39.87435 | 174.07672 | 37084 ft | 436 kts | 34° |
| 2026-05-07 10:17 | -39.82850 | 174.12782 | 37099 ft | 436 kts | 34° |
| 2026-05-07 10:17 | -39.78236 | 174.17915 | 37101 ft | 437 kts | 34° |
| 2026-05-07 10:18 | -39.73617 | 174.23045 | 37105 ft | 437 kts | 34° |
| 2026-05-07 10:18 | -39.68990 | 174.28174 | 37108 ft | 437 kts | 34° |
| 2026-05-07 10:19 | -39.64368 | 174.33289 | 37110 ft | 436 kts | 34° |
| 2026-05-07 10:19 | -39.59777 | 174.38359 | 37127 ft | 435 kts | 34° |
| 2026-05-07 10:20 | -39.55166 | 174.43443 | 37126 ft | 435 kts | 34° |
| 2026-05-07 10:20 | -39.50392 | 174.48167 | 37130 ft | 427 kts | 24° |
| 2026-05-07 10:21 | -39.44963 | 174.50893 | 37128 ft | 413 kts | 7° |
| 2026-05-07 10:21 | -39.39351 | 174.52187 | 37142 ft | 411 kts | 3° |
| 2026-05-07 10:22 | -39.33689 | 174.53214 | 37152 ft | 411 kts | 3° |
| 2026-05-07 10:22 | -39.28017 | 174.54234 | 37151 ft | 411 kts | 3° |
| 2026-05-07 10:23 | -39.22348 | 174.55293 | 37136 ft | 411 kts | 3° |
| 2026-05-07 10:23 | -39.16685 | 174.56370 | 37163 ft | 412 kts | 4° |
| 2026-05-07 10:24 | -39.10996 | 174.57457 | 37162 ft | 412 kts | 4° |
| 2026-05-07 10:24 | -39.05352 | 174.58533 | 37162 ft | 412 kts | 4° |
| 2026-05-07 10:25 | -38.99674 | 174.59612 | 37154 ft | 412 kts | 4° |
| 2026-05-07 10:25 | -38.93995 | 174.60689 | 37088 ft | 413 kts | 4° |
| 2026-05-07 10:25 | -38.91152 | 174.61228 | 36833 ft | 413 kts | 4° |
| 2026-05-07 10:26 | -38.88305 | 174.61766 | 36579 ft | 413 kts | 4° |
| 2026-05-07 10:26 | -38.85454 | 174.62305 | 36325 ft | 414 kts | 4° |
| 2026-05-07 10:26 | -38.82601 | 174.62844 | 36075 ft | 414 kts | 4° |
| 2026-05-07 10:26 | -38.79756 | 174.63382 | 35836 ft | 414 kts | 4° |
| 2026-05-07 10:27 | -38.76907 | 174.63920 | 35566 ft | 414 kts | 4° |
| 2026-05-07 10:27 | -38.74061 | 174.64456 | 35324 ft | 414 kts | 4° |
| 2026-05-07 10:27 | -38.71196 | 174.64996 | 35083 ft | 415 kts | 4° |
| 2026-05-07 10:27 | -38.68340 | 174.65533 | 34852 ft | 415 kts | 4° |
| 2026-05-07 10:28 | -38.65504 | 174.66067 | 34612 ft | 415 kts | 4° |
| 2026-05-07 10:28 | -38.62642 | 174.66605 | 34375 ft | 415 kts | 4° |
| 2026-05-07 10:28 | -38.59787 | 174.67142 | 34136 ft | 416 kts | 4° |
| 2026-05-07 10:28 | -38.56919 | 174.67680 | 33665 ft | 416 kts | 5° |
| 2026-05-07 10:29 | -38.54048 | 174.68218 | 32980 ft | 418 kts | 5° |
| 2026-05-07 10:29 | -38.51163 | 174.68758 | 32279 ft | 420 kts | 5° |
| 2026-05-07 10:29 | -38.48259 | 174.69300 | 31587 ft | 423 kts | 5° |
| 2026-05-07 10:30 | -38.42400 | 174.70394 | 30052 ft | 428 kts | 5° |
| 2026-05-07 10:30 | -38.39439 | 174.70946 | 29332 ft | 432 kts | 5° |
| 2026-05-07 10:30 | -38.36436 | 174.71506 | 28816 ft | 435 kts | 5° |
| 2026-05-07 10:30 | -38.33437 | 174.72066 | 28243 ft | 436 kts | 5° |
| 2026-05-07 10:31 | -38.30470 | 174.72622 | 27796 ft | 425 kts | 5° |
| 2026-05-07 10:31 | -38.27589 | 174.73165 | 27416 ft | 411 kts | 5° |
| 2026-05-07 10:31 | -38.24797 | 174.73689 | 26862 ft | 403 kts | 5° |
| 2026-05-07 10:31 | -38.22075 | 174.74196 | 26229 ft | 398 kts | 5° |
| 2026-05-07 10:32 | -38.19340 | 174.74703 | 25524 ft | 396 kts | 5° |
| 2026-05-07 10:32 | -38.16624 | 174.75205 | 24947 ft | 392 kts | 5° |
| 2026-05-07 10:32 | -38.13923 | 174.75704 | 24405 ft | 391 kts | 5° |
| 2026-05-07 10:32 | -38.11238 | 174.76200 | 23862 ft | 390 kts | 5° |
| 2026-05-07 10:33 | -38.08553 | 174.76696 | 23239 ft | 388 kts | 5° |
| 2026-05-07 10:33 | -38.05888 | 174.77189 | 22678 ft | 385 kts | 5° |
| 2026-05-07 10:33 | -38.03251 | 174.77677 | 22145 ft | 381 kts | 5° |
| 2026-05-07 10:33 | -38.00636 | 174.78160 | 21601 ft | 378 kts | 5° |
| 2026-05-07 10:34 | -37.98048 | 174.78639 | 21055 ft | 375 kts | 5° |
| 2026-05-07 10:34 | -37.95506 | 174.79109 | 20517 ft | 371 kts | 5° |
| 2026-05-07 10:34 | -37.92965 | 174.79578 | 19979 ft | 368 kts | 5° |
| 2026-05-07 10:34 | -37.90440 | 174.80043 | 19448 ft | 364 kts | 4° |
| 2026-05-07 10:35 | -37.87941 | 174.80448 | 18907 ft | 359 kts | 0° |
| 2026-05-07 10:35 | -37.85460 | 174.80589 | 18326 ft | 355 kts | 358° |
| 2026-05-07 10:35 | -37.83000 | 174.80657 | 17765 ft | 352 kts | 358° |
| 2026-05-07 10:35 | -37.81385 | 174.80689 | 17434 ft | 350 kts | 358° |
| 2026-05-07 10:36 | -37.78148 | 174.80742 | 16761 ft | 347 kts | 358° |
| 2026-05-07 10:36 | -37.76552 | 174.80765 | 16426 ft | 345 kts | 358° |
| 2026-05-07 10:36 | -37.74163 | 174.80797 | 15924 ft | 342 kts | 358° |
| 2026-05-07 10:36 | -37.71791 | 174.80829 | 15420 ft | 340 kts | 358° |
| 2026-05-07 10:37 | -37.69435 | 174.80860 | 14921 ft | 337 kts | 358° |
| 2026-05-07 10:37 | -37.67096 | 174.80890 | 14308 ft | 335 kts | 358° |
| 2026-05-07 10:37 | -37.64777 | 174.80920 | 13688 ft | 331 kts | 358° |
| 2026-05-07 10:37 | -37.62483 | 174.80950 | 13408 ft | 325 kts | 358° |
| 2026-05-07 10:38 | -37.60259 | 174.80980 | 12981 ft | 317 kts | 358° |
| 2026-05-07 10:38 | -37.58073 | 174.81008 | 12516 ft | 311 kts | 358° |
| 2026-05-07 10:38 | -37.55929 | 174.81036 | 12084 ft | 306 kts | 358° |
| 2026-05-07 10:38 | -37.53818 | 174.81062 | 11634 ft | 300 kts | 358° |
| 2026-05-07 10:39 | -37.51736 | 174.81089 | 11227 ft | 297 kts | 358° |
| 2026-05-07 10:39 | -37.49661 | 174.81114 | 10822 ft | 296 kts | 358° |
| 2026-05-07 10:39 | -37.47610 | 174.81140 | 10454 ft | 292 kts | 358° |
| 2026-05-07 10:39 | -37.45661 | 174.81168 | 10361 ft | 269 kts | 358° |
| 2026-05-07 10:40 | -37.43852 | 174.81193 | 10271 ft | 257 kts | 358° |
| 2026-05-07 10:40 | -37.42062 | 174.81215 | 9967 ft | 257 kts | 358° |
| 2026-05-07 10:40 | -37.40290 | 174.81236 | 9589 ft | 256 kts | 358° |
| 2026-05-07 10:40 | -37.38506 | 174.81258 | 9282 ft | 255 kts | 358° |
| 2026-05-07 10:41 | -37.36732 | 174.81279 | 8961 ft | 254 kts | 358° |
| 2026-05-07 10:41 | -37.34966 | 174.81302 | 8644 ft | 253 kts | 358° |
| 2026-05-07 10:41 | -37.33206 | 174.81324 | 8332 ft | 253 kts | 358° |
| 2026-05-07 10:41 | -37.31460 | 174.81347 | 8138 ft | 245 kts | 358° |
| 2026-05-07 10:42 | -37.29801 | 174.81369 | 7903 ft | 239 kts | 358° |
| 2026-05-07 10:42 | -37.28153 | 174.81173 | 7597 ft | 237 kts | 343° |
| 2026-05-07 10:42 | -37.26681 | 174.80314 | 7307 ft | 233 kts | 322° |
| 2026-05-07 10:42 | -37.25594 | 174.78817 | 7029 ft | 233 kts | 304° |
| 2026-05-07 10:43 | -37.24765 | 174.77069 | 6744 ft | 233 kts | 300° |
| 2026-05-07 10:43 | -37.23990 | 174.75285 | 6450 ft | 232 kts | 299° |
| 2026-05-07 10:43 | -37.23218 | 174.73505 | 6163 ft | 230 kts | 300° |
| 2026-05-07 10:43 | -37.22451 | 174.71749 | 5894 ft | 229 kts | 300° |
| 2026-05-07 10:44 | -37.21684 | 174.70008 | 5612 ft | 227 kts | 300° |
| 2026-05-07 10:44 | -37.20926 | 174.68298 | 5334 ft | 226 kts | 301° |
| 2026-05-07 10:44 | -37.20164 | 174.66583 | 5110 ft | 221 kts | 301° |
| 2026-05-07 10:44 | -37.19436 | 174.64945 | 5026 ft | 209 kts | 302° |
| 2026-05-07 10:45 | -37.18740 | 174.63382 | 4859 ft | 203 kts | 302° |
| 2026-05-07 10:45 | -37.18051 | 174.61839 | 4652 ft | 202 kts | 303° |
| 2026-05-07 10:45 | -37.17372 | 174.60318 | 4470 ft | 199 kts | 303° |
| 2026-05-07 10:45 | -37.16695 | 174.58810 | 4249 ft | 198 kts | 304° |
| 2026-05-07 10:46 | -37.15868 | 174.57462 | 4045 ft | 193 kts | 320° |
| 2026-05-07 10:46 | -37.14715 | 174.56595 | 3937 ft | 198 kts | 337° |
| 2026-05-07 10:46 | -37.13409 | 174.55984 | 3723 ft | 201 kts | 341° |
| 2026-05-07 10:46 | -37.12084 | 174.55431 | 3483 ft | 201 kts | 342° |
| 2026-05-07 10:47 | -37.10749 | 174.54958 | 3232 ft | 198 kts | 350° |
| 2026-05-07 10:47 | -37.09377 | 174.54960 | 3012 ft | 199 kts | 9° |
| 2026-05-07 10:47 | -37.08107 | 174.55671 | 2911 ft | 206 kts | 33° |
| 2026-05-07 10:47 | -37.07186 | 174.57000 | 2873 ft | 197 kts | 56° |
| 2026-05-07 10:48 | -37.06683 | 174.58505 | 2705 ft | 179 kts | 64° |
| 2026-05-07 10:48 | -37.06314 | 174.59927 | 2602 ft | 172 kts | 66° |
| 2026-05-07 10:48 | -37.05957 | 174.61356 | 2588 ft | 171 kts | 63° |
| 2026-05-07 10:48 | -37.05568 | 174.62759 | 2419 ft | 171 kts | 63° |
| 2026-05-07 10:49 | -37.05180 | 174.64161 | 2183 ft | 170 kts | 64° |
| 2026-05-07 10:49 | -37.04802 | 174.65551 | 1948 ft | 165 kts | 62° |
| 2026-05-07 10:49 | -37.04439 | 174.66875 | 1716 ft | 158 kts | 63° |
| 2026-05-07 10:49 | -37.04086 | 174.68153 | 1500 ft | 151 kts | 64° |
| 2026-05-07 10:50 | -37.03762 | 174.69333 | 1302 ft | 137 kts | 66° |
| 2026-05-07 10:50 | -37.03479 | 174.70445 | 1104 ft | 133 kts | 68° |
| 2026-05-07 10:50 | -37.03185 | 174.71530 | 874 ft | 131 kts | 64° |
| 2026-05-07 10:50 | -37.02871 | 174.72612 | 704 ft | 133 kts | 67° |
| 2026-05-07 10:51 | -37.02557 | 174.73713 | 594 ft | 135 kts | 68° |
| 2026-05-07 10:51 | -37.02268 | 174.74833 | 427 ft | 136 kts | 67° |
| 2026-05-07 10:51 | -37.01948 | 174.75938 | 243 ft | 134 kts | 67° |
| 2026-05-07 10:51 | -37.01651 | 174.77028 | 88 ft | 132 kts | 68° |
| 2026-05-07 10:52 | -37.01359 | 174.78063 | 29 ft | 110 kts | 71° |
| 2026-05-07 10:52 | -37.01172 | 174.78747 | 29 ft | 57 kts | 72° |
| 2026-05-07 10:52 | -37.01076 | 174.79090 | 29 ft | 36 kts | 70° |
| 2026-05-07 10:52 | -37.00993 | 174.79388 | 28 ft | 36 kts | 70° |
| 2026-05-07 10:53 | -37.00857 | 174.79639 | 28 ft | 34 kts | 41° |
| 2026-05-07 10:53 | -37.00741 | 174.79748 | 28 ft | 8 kts | 4° |
| 2026-05-07 10:53 | -37.00713 | 174.79702 | 28 ft | 8 kts | 260° |
| 2026-05-07 10:53 | -37.00740 | 174.79611 | 28 ft | 14 kts | 249° |
| 2026-05-07 10:54 | -37.00778 | 174.79476 | 28 ft | 19 kts | 251° |
| 2026-05-07 10:54 | -37.00823 | 174.79315 | 28 ft | 21 kts | 251° |
| 2026-05-07 10:54 | -37.00865 | 174.79144 | 28 ft | 16 kts | 270° |
| 2026-05-07 10:54 | -37.00809 | 174.79088 | 28 ft | 8 kts | 342° |
| 2026-05-07 10:55 | -37.00757 | 174.79066 | 28 ft | 6 kts | 341° |
| 2026-05-07 10:55 | -37.00730 | 174.79055 | 28 ft | 2 kts | 342° |
| 2026-05-07 10:55 | -37.00729 | 174.79055 | 28 ft | 0 kts | 342° |